sensor_id;sensor_type;location;lat;lon;timestamp;noise_LAeq;noise_LA_min;noise_LA_max;noise_LA01;noise_LA95
63692;Laerm;49838;51.798;10.954;2023-07-28T00:02:26;32.21;28.21;43.60;;
63692;Laerm;49838;51.798;10.954;2023-07-28T00:04:53;32.05;28.16;46.18;;
63692;Laerm;49838;51.798;10.954;2023-07-28T00:07:20;32.75;29.22;45.13;;
63692;Laerm;49838;51.798;10.954;2023-07-28T00:09:48;33.02;29.42;42.50;;
63692;Laerm;49838;51.798;10.954;2023-07-28T00:12:16;32.54;30.01;44.89;;
63692;Laerm;49838;51.798;10.954;2023-07-28T00:14:44;36.78;30.80;47.70;;
63692;Laerm;49838;51.798;10.954;2023-07-28T00:17:12;34.81;29.22;49.75;;
63692;Laerm;49838;51.798;10.954;2023-07-28T00:19:39;50.20;30.65;66.05;;
63692;Laerm;49838;51.798;10.954;2023-07-28T00:22:07;34.96;30.27;51.64;;
63692;Laerm;49838;51.798;10.954;2023-07-28T00:24:34;33.08;28.96;40.80;;
63692;Laerm;49838;51.798;10.954;2023-07-28T00:27:01;34.43;28.29;49.66;;
63692;Laerm;49838;51.798;10.954;2023-07-28T00:29:30;29.75;27.45;34.92;;
63692;Laerm;49838;51.798;10.954;2023-07-28T00:31:57;29.78;27.38;42.23;;
63692;Laerm;49838;51.798;10.954;2023-07-28T00:34:25;28.57;27.08;39.39;;
63692;Laerm;49838;51.798;10.954;2023-07-28T00:36:53;29.09;26.85;41.15;;
63692;Laerm;49838;51.798;10.954;2023-07-28T00:39:20;28.79;27.15;33.28;;
63692;Laerm;49838;51.798;10.954;2023-07-28T00:41:49;28.93;27.06;36.93;;
63692;Laerm;49838;51.798;10.954;2023-07-28T00:44:16;28.63;27.01;34.19;;
63692;Laerm;49838;51.798;10.954;2023-07-28T00:46:45;30.70;27.32;40.86;;
63692;Laerm;49838;51.798;10.954;2023-07-28T00:49:13;33.58;28.03;49.34;;
63692;Laerm;49838;51.798;10.954;2023-07-28T00:51:41;34.24;30.03;47.05;;
63692;Laerm;49838;51.798;10.954;2023-07-28T00:54:08;31.15;28.16;38.10;;
63692;Laerm;49838;51.798;10.954;2023-07-28T00:56:35;29.92;27.52;38.50;;
63692;Laerm;49838;51.798;10.954;2023-07-28T00:59:03;31.28;27.99;42.03;;
63692;Laerm;49838;51.798;10.954;2023-07-28T01:01:30;32.57;27.79;45.98;;
63692;Laerm;49838;51.798;10.954;2023-07-28T01:03:59;31.30;27.74;40.00;;
63692;Laerm;49838;51.798;10.954;2023-07-28T01:06:33;29.07;27.14;39.35;;
63692;Laerm;49838;51.798;10.954;2023-07-28T01:09:06;30.46;27.05;44.19;;
63692;Laerm;49838;51.798;10.954;2023-07-28T01:11:36;28.92;27.07;35.47;;
63692;Laerm;49838;51.798;10.954;2023-07-28T01:14:04;30.28;27.45;42.45;;
63692;Laerm;49838;51.798;10.954;2023-07-28T01:16:31;28.93;27.24;33.63;;
63692;Laerm;49838;51.798;10.954;2023-07-28T01:19:00;30.50;27.24;39.99;;
63692;Laerm;49838;51.798;10.954;2023-07-28T01:21:30;28.89;27.11;34.71;;
63692;Laerm;49838;51.798;10.954;2023-07-28T01:24:01;28.53;26.90;32.59;;
63692;Laerm;49838;51.798;10.954;2023-07-28T01:26:35;30.70;27.35;41.79;;
63692;Laerm;49838;51.798;10.954;2023-07-28T01:29:03;29.33;27.29;39.41;;
63692;Laerm;49838;51.798;10.954;2023-07-28T01:31:31;42.40;28.69;62.62;;
63692;Laerm;49838;51.798;10.954;2023-07-28T01:33:59;34.76;29.16;43.53;;
63692;Laerm;49838;51.798;10.954;2023-07-28T01:36:26;37.16;30.62;48.95;;
63692;Laerm;49838;51.798;10.954;2023-07-28T01:38:54;38.69;31.87;49.46;;
63692;Laerm;49838;51.798;10.954;2023-07-28T01:41:21;30.66;27.80;36.90;;
63692;Laerm;49838;51.798;10.954;2023-07-28T01:43:50;33.20;29.14;44.54;;
63692;Laerm;49838;51.798;10.954;2023-07-28T01:46:21;35.11;28.10;45.36;;
63692;Laerm;49838;51.798;10.954;2023-07-28T01:48:48;33.18;28.78;47.59;;
63692;Laerm;49838;51.798;10.954;2023-07-28T01:51:16;34.40;28.49;49.46;;
63692;Laerm;49838;51.798;10.954;2023-07-28T01:53:43;31.70;28.41;42.21;;
63692;Laerm;49838;51.798;10.954;2023-07-28T01:56:10;53.48;28.54;74.10;;
63692;Laerm;49838;51.798;10.954;2023-07-28T01:58:38;34.24;28.88;40.36;;
63692;Laerm;49838;51.798;10.954;2023-07-28T02:01:06;33.77;28.79;45.58;;
63692;Laerm;49838;51.798;10.954;2023-07-28T02:03:34;32.89;28.65;40.62;;
63692;Laerm;49838;51.798;10.954;2023-07-28T02:06:01;31.88;28.79;45.26;;
63692;Laerm;49838;51.798;10.954;2023-07-28T02:08:28;50.90;28.10;71.12;;
63692;Laerm;49838;51.798;10.954;2023-07-28T02:10:55;31.69;28.11;42.91;;
63692;Laerm;49838;51.798;10.954;2023-07-28T02:13:23;40.54;28.25;70.20;;
63692;Laerm;49838;51.798;10.954;2023-07-28T02:15:50;34.38;28.90;46.67;;
63692;Laerm;49838;51.798;10.954;2023-07-28T02:18:19;32.03;28.62;42.32;;
63692;Laerm;49838;51.798;10.954;2023-07-28T02:20:47;54.51;30.18;75.09;;
63692;Laerm;49838;51.798;10.954;2023-07-28T02:23:15;33.72;29.58;48.26;;
63692;Laerm;49838;51.798;10.954;2023-07-28T02:25:42;33.65;29.50;43.89;;
63692;Laerm;49838;51.798;10.954;2023-07-28T02:28:10;34.57;30.51;49.41;;
63692;Laerm;49838;51.798;10.954;2023-07-28T02:30:37;36.78;31.27;42.83;;
63692;Laerm;49838;51.798;10.954;2023-07-28T02:33:05;35.84;30.45;44.13;;
63692;Laerm;49838;51.798;10.954;2023-07-28T02:35:34;33.69;30.12;45.33;;
63692;Laerm;49838;51.798;10.954;2023-07-28T02:38:02;35.04;29.62;46.65;;
63692;Laerm;49838;51.798;10.954;2023-07-28T02:40:29;43.37;29.15;61.48;;
63692;Laerm;49838;51.798;10.954;2023-07-28T02:42:56;51.93;31.30;69.33;;
63692;Laerm;49838;51.798;10.954;2023-07-28T02:45:24;35.42;29.75;47.23;;
63692;Laerm;49838;51.798;10.954;2023-07-28T02:47:52;32.39;28.44;52.35;;
63692;Laerm;49838;51.798;10.954;2023-07-28T02:50:19;34.28;29.97;47.65;;
63692;Laerm;49838;51.798;10.954;2023-07-28T02:52:47;32.20;29.74;38.54;;
63692;Laerm;49838;51.798;10.954;2023-07-28T02:55:15;33.89;30.21;45.89;;
63692;Laerm;49838;51.798;10.954;2023-07-28T02:57:42;32.81;29.03;48.97;;
63692;Laerm;49838;51.798;10.954;2023-07-28T03:00:11;33.05;28.84;46.36;;
63692;Laerm;49838;51.798;10.954;2023-07-28T03:02:38;35.00;29.14;46.17;;
63692;Laerm;49838;51.798;10.954;2023-07-28T03:05:06;37.05;30.41;48.45;;
63692;Laerm;49838;51.798;10.954;2023-07-28T03:07:33;36.99;32.15;51.98;;
63692;Laerm;49838;51.798;10.954;2023-07-28T03:10:02;36.46;31.75;50.40;;
63692;Laerm;49838;51.798;10.954;2023-07-28T03:12:29;53.82;32.13;70.71;;
63692;Laerm;49838;51.798;10.954;2023-07-28T03:14:56;37.29;31.36;50.09;;
63692;Laerm;49838;51.798;10.954;2023-07-28T03:17:24;40.22;32.09;56.05;;
63692;Laerm;49838;51.798;10.954;2023-07-28T03:19:51;51.14;35.00;68.40;;
63692;Laerm;49838;51.798;10.954;2023-07-28T03:22:19;50.28;35.96;68.30;;
63692;Laerm;49838;51.798;10.954;2023-07-28T03:24:46;43.29;35.72;60.44;;
63692;Laerm;49838;51.798;10.954;2023-07-28T03:27:15;41.58;35.69;51.23;;
63692;Laerm;49838;51.798;10.954;2023-07-28T03:29:42;41.86;35.92;63.58;;
63692;Laerm;49838;51.798;10.954;2023-07-28T03:32:10;41.81;36.27;51.02;;
63692;Laerm;49838;51.798;10.954;2023-07-28T03:34:37;48.38;39.90;63.14;;
63692;Laerm;49838;51.798;10.954;2023-07-28T03:37:04;43.62;36.59;52.72;;
63692;Laerm;49838;51.798;10.954;2023-07-28T03:39:32;54.39;36.10;71.16;;
63692;Laerm;49838;51.798;10.954;2023-07-28T03:41:59;55.73;36.03;73.13;;
63692;Laerm;49838;51.798;10.954;2023-07-28T03:44:27;42.29;34.50;56.39;;
63692;Laerm;49838;51.798;10.954;2023-07-28T03:46:55;50.48;35.63;69.02;;
63692;Laerm;49838;51.798;10.954;2023-07-28T03:49:22;56.89;36.75;70.08;;
63692;Laerm;49838;51.798;10.954;2023-07-28T03:51:49;55.96;34.67;74.67;;
63692;Laerm;49838;51.798;10.954;2023-07-28T03:54:17;45.39;32.87;62.98;;
63692;Laerm;49838;51.798;10.954;2023-07-28T03:56:44;56.46;32.75;73.40;;
63692;Laerm;49838;51.798;10.954;2023-07-28T03:59:11;38.67;32.48;61.45;;
63692;Laerm;49838;51.798;10.954;2023-07-28T04:01:40;50.99;33.05;69.02;;
63692;Laerm;49838;51.798;10.954;2023-07-28T04:04:07;40.27;34.82;57.36;;
63692;Laerm;49838;51.798;10.954;2023-07-28T04:06:41;53.55;33.90;68.68;;
63692;Laerm;49838;51.798;10.954;2023-07-28T04:09:09;54.36;33.79;72.50;;
63692;Laerm;49838;51.798;10.954;2023-07-28T04:11:37;37.73;33.49;49.56;;
63692;Laerm;49838;51.798;10.954;2023-07-28T04:14:05;55.70;33.98;73.03;;
63692;Laerm;49838;51.798;10.954;2023-07-28T04:16:32;50.06;33.81;69.13;;
63692;Laerm;49838;51.798;10.954;2023-07-28T04:19:01;48.65;32.60;67.38;;
63692;Laerm;49838;51.798;10.954;2023-07-28T04:21:28;58.60;35.99;79.69;;
63692;Laerm;49838;51.798;10.954;2023-07-28T04:23:56;58.53;34.61;80.60;;
63692;Laerm;49838;51.798;10.954;2023-07-28T04:26:24;58.81;33.71;74.76;;
63692;Laerm;49838;51.798;10.954;2023-07-28T04:28:51;41.06;35.55;54.71;;
63692;Laerm;49838;51.798;10.954;2023-07-28T04:31:19;39.39;34.76;55.91;;
63692;Laerm;49838;51.798;10.954;2023-07-28T04:33:46;57.56;37.22;74.11;;
63692;Laerm;49838;51.798;10.954;2023-07-28T04:36:15;54.59;36.52;74.50;;
63692;Laerm;49838;51.798;10.954;2023-07-28T04:38:42;51.85;38.07;68.32;;
63692;Laerm;49838;51.798;10.954;2023-07-28T04:41:09;42.47;37.24;51.98;;
63692;Laerm;49838;51.798;10.954;2023-07-28T04:43:37;56.87;36.94;74.69;;
63692;Laerm;49838;51.798;10.954;2023-07-28T04:46:04;55.00;36.17;72.72;;
63692;Laerm;49838;51.798;10.954;2023-07-28T04:48:31;56.07;35.66;72.17;;
63692;Laerm;49838;51.798;10.954;2023-07-28T04:50:58;56.28;36.57;72.87;;
63692;Laerm;49838;51.798;10.954;2023-07-28T04:53:27;55.69;35.77;71.59;;
63692;Laerm;49838;51.798;10.954;2023-07-28T04:55:55;57.73;36.10;71.69;;
63692;Laerm;49838;51.798;10.954;2023-07-28T04:58:22;58.15;33.19;76.33;;
63692;Laerm;49838;51.798;10.954;2023-07-28T05:00:49;54.25;33.55;74.05;;
63692;Laerm;49838;51.798;10.954;2023-07-28T05:03:16;58.53;36.90;75.82;;
63692;Laerm;49838;51.798;10.954;2023-07-28T05:05:44;54.20;36.50;74.15;;
63692;Laerm;49838;51.798;10.954;2023-07-28T05:08:11;40.99;36.62;54.88;;
63692;Laerm;49838;51.798;10.954;2023-07-28T05:10:41;40.40;35.16;51.16;;
63692;Laerm;49838;51.798;10.954;2023-07-28T05:13:09;58.93;35.92;73.83;;
63692;Laerm;49838;51.798;10.954;2023-07-28T05:15:36;55.23;37.26;69.86;;
63692;Laerm;49838;51.798;10.954;2023-07-28T05:18:03;53.00;38.28;68.38;;
63692;Laerm;49838;51.798;10.954;2023-07-28T05:20:31;50.41;36.12;65.88;;
63692;Laerm;49838;51.798;10.954;2023-07-28T05:22:58;52.86;37.16;69.62;;
63692;Laerm;49838;51.798;10.954;2023-07-28T05:25:25;55.00;39.61;69.73;;
63692;Laerm;49838;51.798;10.954;2023-07-28T05:27:54;51.78;35.57;70.29;;
63692;Laerm;49838;51.798;10.954;2023-07-28T05:30:21;58.38;36.24;71.91;;
63692;Laerm;49838;51.798;10.954;2023-07-28T05:32:48;42.26;34.78;55.67;;
63692;Laerm;49838;51.798;10.954;2023-07-28T05:35:16;55.66;34.08;72.80;;
63692;Laerm;49838;51.798;10.954;2023-07-28T05:37:43;51.07;36.36;70.72;;
63692;Laerm;49838;51.798;10.954;2023-07-28T05:40:11;58.60;38.30;71.01;;
63692;Laerm;49838;51.798;10.954;2023-07-28T05:42:39;43.96;37.55;62.81;;
63692;Laerm;49838;51.798;10.954;2023-07-28T05:45:09;56.81;39.18;73.42;;
63692;Laerm;49838;51.798;10.954;2023-07-28T05:47:36;54.88;39.47;75.21;;
63692;Laerm;49838;51.798;10.954;2023-07-28T05:50:04;57.64;40.02;73.87;;
63692;Laerm;49838;51.798;10.954;2023-07-28T05:52:32;58.75;37.75;74.34;;
63692;Laerm;49838;51.798;10.954;2023-07-28T05:55:00;53.46;37.61;70.18;;
63692;Laerm;49838;51.798;10.954;2023-07-28T05:57:27;55.70;39.72;71.31;;
63692;Laerm;49838;51.798;10.954;2023-07-28T05:59:54;55.92;38.05;73.99;;
63692;Laerm;49838;51.798;10.954;2023-07-28T06:02:23;50.86;38.59;67.77;;
63692;Laerm;49838;51.798;10.954;2023-07-28T06:04:50;54.38;37.03;72.28;;
63692;Laerm;49838;51.798;10.954;2023-07-28T06:07:18;51.49;36.92;69.02;;
63692;Laerm;49838;51.798;10.954;2023-07-28T06:09:45;58.35;36.20;71.59;;
63692;Laerm;49838;51.798;10.954;2023-07-28T06:12:12;53.76;37.31;71.25;;
63692;Laerm;49838;51.798;10.954;2023-07-28T06:14:42;46.52;36.52;74.00;;
63692;Laerm;49838;51.798;10.954;2023-07-28T06:17:09;58.13;35.68;73.02;;
63692;Laerm;49838;51.798;10.954;2023-07-28T06:19:38;54.98;36.95;72.34;;
63692;Laerm;49838;51.798;10.954;2023-07-28T06:22:05;50.96;36.85;66.55;;
63692;Laerm;49838;51.798;10.954;2023-07-28T06:24:33;51.55;35.57;66.28;;
63692;Laerm;49838;51.798;10.954;2023-07-28T06:27:00;55.52;38.61;71.58;;
63692;Laerm;49838;51.798;10.954;2023-07-28T06:29:33;43.66;36.52;66.15;;
63692;Laerm;49838;51.798;10.954;2023-07-28T06:32:00;60.26;38.73;78.63;;
63692;Laerm;49838;51.798;10.954;2023-07-28T06:34:28;60.99;37.55;78.09;;
63692;Laerm;49838;51.798;10.954;2023-07-28T06:36:56;59.37;36.24;74.12;;
63692;Laerm;49838;51.798;10.954;2023-07-28T06:39:24;52.85;37.82;69.98;;
63692;Laerm;49838;51.798;10.954;2023-07-28T06:41:51;52.52;37.85;67.56;;
63692;Laerm;49838;51.798;10.954;2023-07-28T06:44:19;41.97;37.56;56.78;;
63692;Laerm;49838;51.798;10.954;2023-07-28T06:46:46;54.21;35.57;70.07;;
63692;Laerm;49838;51.798;10.954;2023-07-28T06:49:14;56.11;39.80;70.01;;
63692;Laerm;49838;51.798;10.954;2023-07-28T06:51:41;58.22;39.91;72.88;;
63692;Laerm;49838;51.798;10.954;2023-07-28T06:54:10;55.15;37.23;71.27;;
63692;Laerm;49838;51.798;10.954;2023-07-28T06:56:38;56.81;35.90;70.85;;
63692;Laerm;49838;51.798;10.954;2023-07-28T06:59:06;53.01;37.45;68.24;;
63692;Laerm;49838;51.798;10.954;2023-07-28T07:01:33;60.27;38.25;76.50;;
63692;Laerm;49838;51.798;10.954;2023-07-28T07:04:01;50.87;39.60;66.50;;
63692;Laerm;49838;51.798;10.954;2023-07-28T07:06:28;54.71;37.14;71.94;;
63692;Laerm;49838;51.798;10.954;2023-07-28T07:08:55;59.54;39.41;71.88;;
63692;Laerm;49838;51.798;10.954;2023-07-28T07:11:24;58.98;36.51;73.86;;
63692;Laerm;49838;51.798;10.954;2023-07-28T07:13:52;61.08;37.66;87.50;;
63692;Laerm;49838;51.798;10.954;2023-07-28T07:16:19;60.68;35.37;76.20;;
63692;Laerm;49838;51.798;10.954;2023-07-28T07:18:46;48.55;36.92;65.16;;
63692;Laerm;49838;51.798;10.954;2023-07-28T07:21:13;63.02;39.73;80.94;;
63692;Laerm;49838;51.798;10.954;2023-07-28T07:23:41;58.28;38.02;76.58;;
63692;Laerm;49838;51.798;10.954;2023-07-28T07:26:08;56.87;37.14;71.56;;
63692;Laerm;49838;51.798;10.954;2023-07-28T07:28:37;58.01;42.81;69.65;;
63692;Laerm;49838;51.798;10.954;2023-07-28T07:31:04;57.70;41.12;72.60;;
63692;Laerm;49838;51.798;10.954;2023-07-28T07:33:38;62.36;40.90;79.76;;
63692;Laerm;49838;51.798;10.954;2023-07-28T07:36:05;56.92;37.49;72.75;;
63692;Laerm;49838;51.798;10.954;2023-07-28T07:38:33;59.17;39.32;77.37;;
63692;Laerm;49838;51.798;10.954;2023-07-28T07:41:00;61.29;38.98;76.80;;
63692;Laerm;49838;51.798;10.954;2023-07-28T07:43:28;53.39;40.24;64.38;;
63692;Laerm;49838;51.798;10.954;2023-07-28T07:45:56;58.35;43.16;73.10;;
63692;Laerm;49838;51.798;10.954;2023-07-28T07:48:24;58.40;42.71;71.99;;
63692;Laerm;49838;51.798;10.954;2023-07-28T07:50:51;58.16;39.61;70.30;;
63692;Laerm;49838;51.798;10.954;2023-07-28T07:53:19;59.19;39.59;73.14;;
63692;Laerm;49838;51.798;10.954;2023-07-28T07:55:46;56.87;40.15;69.13;;
63692;Laerm;49838;51.798;10.954;2023-07-28T07:58:14;60.12;42.85;74.10;;
63692;Laerm;49838;51.798;10.954;2023-07-28T08:00:42;60.79;41.93;75.80;;
63692;Laerm;49838;51.798;10.954;2023-07-28T08:03:11;52.31;38.12;69.75;;
63692;Laerm;49838;51.798;10.954;2023-07-28T08:05:38;59.44;38.24;75.88;;
63692;Laerm;49838;51.798;10.954;2023-07-28T08:08:06;53.78;40.25;68.56;;
63692;Laerm;49838;51.798;10.954;2023-07-28T08:10:34;60.77;39.53;72.27;;
63692;Laerm;49838;51.798;10.954;2023-07-28T08:13:02;55.60;40.21;69.36;;
63692;Laerm;49838;51.798;10.954;2023-07-28T08:15:30;55.51;39.84;70.50;;
63692;Laerm;49838;51.798;10.954;2023-07-28T08:17:57;54.34;40.53;72.80;;
63692;Laerm;49838;51.798;10.954;2023-07-28T08:20:26;55.54;40.10;67.03;;
63692;Laerm;49838;51.798;10.954;2023-07-28T08:22:54;58.88;43.85;72.96;;
63692;Laerm;49838;51.798;10.954;2023-07-28T08:25:21;53.56;41.57;67.33;;
63692;Laerm;49838;51.798;10.954;2023-07-28T08:27:49;60.16;42.51;74.40;;
63692;Laerm;49838;51.798;10.954;2023-07-28T08:30:18;60.85;42.10;72.33;;
63692;Laerm;49838;51.798;10.954;2023-07-28T08:32:46;64.54;42.92;82.36;;
63692;Laerm;49838;51.798;10.954;2023-07-28T08:35:15;61.93;43.25;75.51;;
63692;Laerm;49838;51.798;10.954;2023-07-28T08:37:43;62.22;42.13;72.60;;
63692;Laerm;49838;51.798;10.954;2023-07-28T08:40:11;56.63;39.41;68.60;;
63692;Laerm;49838;51.798;10.954;2023-07-28T08:42:39;59.94;39.45;71.81;;
63692;Laerm;49838;51.798;10.954;2023-07-28T08:45:08;59.46;38.33;73.56;;
63692;Laerm;49838;51.798;10.954;2023-07-28T08:47:36;57.89;38.81;71.79;;
63692;Laerm;49838;51.798;10.954;2023-07-28T08:50:04;64.47;41.22;81.69;;
63692;Laerm;49838;51.798;10.954;2023-07-28T08:52:32;59.06;42.03;71.03;;
63692;Laerm;49838;51.798;10.954;2023-07-28T08:55:01;57.52;41.43;69.60;;
63692;Laerm;49838;51.798;10.954;2023-07-28T08:57:28;58.68;39.55;70.78;;
63692;Laerm;49838;51.798;10.954;2023-07-28T08:59:56;61.00;40.57;76.12;;
63692;Laerm;49838;51.798;10.954;2023-07-28T09:02:23;58.82;40.22;73.40;;
63692;Laerm;49838;51.798;10.954;2023-07-28T09:04:51;60.19;38.39;72.60;;
63692;Laerm;49838;51.798;10.954;2023-07-28T09:07:19;53.05;39.36;66.42;;
63692;Laerm;49838;51.798;10.954;2023-07-28T09:09:48;51.62;41.78;70.61;;
63692;Laerm;49838;51.798;10.954;2023-07-28T09:12:16;60.37;38.99;88.83;;
63692;Laerm;49838;51.798;10.954;2023-07-28T09:14:45;57.42;40.80;71.54;;
63692;Laerm;49838;51.798;10.954;2023-07-28T09:17:12;56.31;40.38;76.22;;
63692;Laerm;49838;51.798;10.954;2023-07-28T09:19:50;55.05;38.66;71.96;;
63692;Laerm;49838;51.798;10.954;2023-07-28T09:22:19;63.81;40.05;82.15;;
63692;Laerm;49838;51.798;10.954;2023-07-28T09:24:46;60.67;43.60;74.35;;
63692;Laerm;49838;51.798;10.954;2023-07-28T09:27:22;58.93;38.77;74.56;;
63692;Laerm;49838;51.798;10.954;2023-07-28T09:29:51;56.59;42.20;71.43;;
63692;Laerm;49838;51.798;10.954;2023-07-28T09:32:27;52.62;39.48;67.82;;
63692;Laerm;49838;51.798;10.954;2023-07-28T09:35:09;61.51;40.16;77.39;;
63692;Laerm;49838;51.798;10.954;2023-07-28T09:37:38;59.63;38.61;76.27;;
63692;Laerm;49838;51.798;10.954;2023-07-28T09:40:08;56.48;41.56;71.76;;
63692;Laerm;49838;51.798;10.954;2023-07-28T09:42:39;54.87;40.68;71.29;;
63692;Laerm;49838;51.798;10.954;2023-07-28T09:45:08;58.35;45.12;73.01;;
63692;Laerm;49838;51.798;10.954;2023-07-28T09:47:36;57.64;42.81;68.91;;
63692;Laerm;49838;51.798;10.954;2023-07-28T09:50:06;56.73;43.15;70.91;;
63692;Laerm;49838;51.798;10.954;2023-07-28T09:52:37;58.53;40.45;71.36;;
63692;Laerm;49838;51.798;10.954;2023-07-28T09:55:09;54.19;36.95;69.84;;
63692;Laerm;49838;51.798;10.954;2023-07-28T09:57:45;58.69;39.49;71.89;;
63692;Laerm;49838;51.798;10.954;2023-07-28T10:00:15;56.22;36.71;69.92;;
63692;Laerm;49838;51.798;10.954;2023-07-28T10:02:44;58.68;38.46;71.05;;
63692;Laerm;49838;51.798;10.954;2023-07-28T10:05:12;56.27;38.77;72.15;;
63692;Laerm;49838;51.798;10.954;2023-07-28T10:07:42;56.01;37.73;69.50;;
63692;Laerm;49838;51.798;10.954;2023-07-28T10:10:11;57.51;38.39;69.92;;
63692;Laerm;49838;51.798;10.954;2023-07-28T10:12:40;59.88;38.81;76.53;;
63692;Laerm;49838;51.798;10.954;2023-07-28T10:15:12;55.92;41.26;72.17;;
63692;Laerm;49838;51.798;10.954;2023-07-28T10:17:44;55.88;37.76;69.55;;
63692;Laerm;49838;51.798;10.954;2023-07-28T10:20:37;55.72;38.82;69.47;;
63692;Laerm;49838;51.798;10.954;2023-07-28T10:23:06;57.69;40.45;70.38;;
63692;Laerm;49838;51.798;10.954;2023-07-28T10:25:35;57.07;40.92;75.09;;
63692;Laerm;49838;51.798;10.954;2023-07-28T10:28:04;56.24;37.54;70.70;;
63692;Laerm;49838;51.798;10.954;2023-07-28T10:30:52;55.45;38.72;69.16;;
63692;Laerm;49838;51.798;10.954;2023-07-28T10:33:28;63.32;40.50;77.25;;
63692;Laerm;49838;51.798;10.954;2023-07-28T10:35:55;50.10;38.99;66.85;;
63692;Laerm;49838;51.798;10.954;2023-07-28T10:38:33;57.39;37.15;77.86;;
63692;Laerm;49838;51.798;10.954;2023-07-28T10:41:07;56.34;37.86;70.99;;
63692;Laerm;49838;51.798;10.954;2023-07-28T10:43:34;58.45;39.58;73.64;;
63692;Laerm;49838;51.798;10.954;2023-07-28T10:46:04;63.46;41.54;85.08;;
63692;Laerm;49838;51.798;10.954;2023-07-28T10:48:32;58.22;36.65;71.91;;
63692;Laerm;49838;51.798;10.954;2023-07-28T10:50:59;55.83;37.93;70.45;;
63692;Laerm;49838;51.798;10.954;2023-07-28T10:53:26;53.97;37.69;70.83;;
63692;Laerm;49838;51.798;10.954;2023-07-28T10:55:54;52.03;36.94;71.04;;
63692;Laerm;49838;51.798;10.954;2023-07-28T10:58:21;53.95;35.39;69.63;;
63692;Laerm;49838;51.798;10.954;2023-07-28T11:00:50;53.75;35.73;72.38;;
63692;Laerm;49838;51.798;10.954;2023-07-28T11:03:19;54.51;38.08;68.74;;
63692;Laerm;49838;51.798;10.954;2023-07-28T11:05:48;59.13;38.18;73.14;;
63692;Laerm;49838;51.798;10.954;2023-07-28T11:08:16;57.84;37.07;71.82;;
63692;Laerm;49838;51.798;10.954;2023-07-28T11:10:44;58.60;40.82;71.32;;
63692;Laerm;49838;51.798;10.954;2023-07-28T11:13:11;56.13;39.56;72.50;;
63692;Laerm;49838;51.798;10.954;2023-07-28T11:15:40;57.77;38.89;71.54;;
63692;Laerm;49838;51.798;10.954;2023-07-28T11:18:07;55.01;38.62;71.34;;
63692;Laerm;49838;51.798;10.954;2023-07-28T11:20:37;55.00;38.73;69.51;;
63692;Laerm;49838;51.798;10.954;2023-07-28T11:23:04;55.14;38.82;68.75;;
63692;Laerm;49838;51.798;10.954;2023-07-28T11:25:33;50.27;38.08;65.73;;
63692;Laerm;49838;51.798;10.954;2023-07-28T11:28:02;57.09;36.25;71.76;;
63692;Laerm;49838;51.798;10.954;2023-07-28T11:30:32;56.48;39.09;74.62;;
63692;Laerm;49838;51.798;10.954;2023-07-28T11:33:03;58.08;38.65;74.66;;
63692;Laerm;49838;51.798;10.954;2023-07-28T11:35:31;59.22;39.50;79.18;;
63692;Laerm;49838;51.798;10.954;2023-07-28T11:37:59;61.18;37.12;78.98;;
63692;Laerm;49838;51.798;10.954;2023-07-28T11:40:27;52.99;37.29;67.85;;
63692;Laerm;49838;51.798;10.954;2023-07-28T11:42:55;54.50;36.19;71.40;;
63692;Laerm;49838;51.798;10.954;2023-07-28T11:45:23;51.65;37.38;67.85;;
63692;Laerm;49838;51.798;10.954;2023-07-28T11:47:57;57.22;37.26;71.07;;
63692;Laerm;49838;51.798;10.954;2023-07-28T11:50:26;51.71;38.04;69.16;;
63692;Laerm;49838;51.798;10.954;2023-07-28T11:52:54;61.84;38.60;81.96;;
63692;Laerm;49838;51.798;10.954;2023-07-28T11:55:23;60.50;41.36;77.30;;
63692;Laerm;49838;51.798;10.954;2023-07-28T11:57:51;54.84;37.80;68.58;;
63692;Laerm;49838;51.798;10.954;2023-07-28T12:00:24;61.45;37.19;80.60;;
63692;Laerm;49838;51.798;10.954;2023-07-28T12:03:05;42.88;36.79;61.79;;
63692;Laerm;49838;51.798;10.954;2023-07-28T12:05:36;54.55;38.88;72.20;;
63692;Laerm;49838;51.798;10.954;2023-07-28T12:08:04;58.03;43.65;70.61;;
63692;Laerm;49838;51.798;10.954;2023-07-28T12:10:35;57.02;39.20;76.71;;
63692;Laerm;49838;51.798;10.954;2023-07-28T12:13:04;56.72;37.48;71.42;;
63692;Laerm;49838;51.798;10.954;2023-07-28T12:15:33;55.89;38.82;72.35;;
63692;Laerm;49838;51.798;10.954;2023-07-28T12:18:03;54.24;39.19;66.35;;
63692;Laerm;49838;51.798;10.954;2023-07-28T12:20:33;60.42;39.55;78.73;;
63692;Laerm;49838;51.798;10.954;2023-07-28T12:23:01;55.42;36.79;73.01;;
63692;Laerm;49838;51.798;10.954;2023-07-28T12:25:29;51.63;37.30;67.77;;
63692;Laerm;49838;51.798;10.954;2023-07-28T12:27:58;54.95;37.30;71.19;;
63692;Laerm;49838;51.798;10.954;2023-07-28T12:30:25;57.09;35.78;73.06;;
63692;Laerm;49838;51.798;10.954;2023-07-28T12:32:53;56.79;42.89;71.50;;
63692;Laerm;49838;51.798;10.954;2023-07-28T12:35:20;57.16;41.53;72.62;;
63692;Laerm;49838;51.798;10.954;2023-07-28T12:37:49;64.23;40.20;82.07;;
63692;Laerm;49838;51.798;10.954;2023-07-28T12:40:18;58.29;38.70;73.40;;
63692;Laerm;49838;51.798;10.954;2023-07-28T12:42:46;58.49;35.05;74.78;;
63692;Laerm;49838;51.798;10.954;2023-07-28T12:45:15;57.74;38.04;71.02;;
63692;Laerm;49838;51.798;10.954;2023-07-28T12:47:43;59.70;40.06;78.68;;
63692;Laerm;49838;51.798;10.954;2023-07-28T12:50:10;55.79;39.96;72.73;;
63692;Laerm;49838;51.798;10.954;2023-07-28T12:52:38;56.58;41.06;72.09;;
63692;Laerm;49838;51.798;10.954;2023-07-28T12:55:05;57.61;37.63;73.72;;
63692;Laerm;49838;51.798;10.954;2023-07-28T12:57:33;55.91;36.97;68.16;;
63692;Laerm;49838;51.798;10.954;2023-07-28T13:00:00;55.69;35.56;67.65;;
63692;Laerm;49838;51.798;10.954;2023-07-28T13:02:35;57.46;38.99;71.33;;
63692;Laerm;49838;51.798;10.954;2023-07-28T13:05:02;55.87;39.00;70.29;;
63692;Laerm;49838;51.798;10.954;2023-07-28T13:07:29;51.32;39.42;68.20;;
63692;Laerm;49838;51.798;10.954;2023-07-28T13:09:57;59.02;38.30;72.35;;
63692;Laerm;49838;51.798;10.954;2023-07-28T13:12:24;56.47;38.05;72.03;;
63692;Laerm;49838;51.798;10.954;2023-07-28T13:14:51;55.56;40.28;69.80;;
63692;Laerm;49838;51.798;10.954;2023-07-28T13:17:18;61.52;39.08;81.43;;
63692;Laerm;49838;51.798;10.954;2023-07-28T13:19:47;54.34;42.53;68.45;;
63692;Laerm;49838;51.798;10.954;2023-07-28T13:22:14;66.09;41.01;87.50;;
63692;Laerm;49838;51.798;10.954;2023-07-28T13:24:42;58.94;38.10;71.54;;
63692;Laerm;49838;51.798;10.954;2023-07-28T13:27:09;59.11;38.09;74.44;;
63692;Laerm;49838;51.798;10.954;2023-07-28T13:29:37;56.37;39.49;68.77;;
63692;Laerm;49838;51.798;10.954;2023-07-28T13:32:15;54.21;39.78;69.04;;
63692;Laerm;49838;51.798;10.954;2023-07-28T13:34:43;59.43;42.24;77.86;;
63692;Laerm;49838;51.798;10.954;2023-07-28T13:37:12;59.73;43.41;76.81;;
63692;Laerm;49838;51.798;10.954;2023-07-28T13:39:41;55.56;40.25;70.29;;